This demonstration page uses our WeatherBlox Daily Observations layout. Learn more.

38.89511, -77.03637

Hourly Observations for September 3, 2019

Temp ( °F °C ) Dew Point ( °F °C ) Humidity (%) Winds ( mph kmh ) Pressure ( in mb ) Visibility ( mi km ) Precip ( " mm )
12:52 am 00:52 Mostly Cloudy 74 23.3 68 20 82 82 NNW 9 15 30 1016 10 16.09344 0 0
1:52 am 01:52 Mostly Cloudy 73 22.8 68 20 84 84 SSW 5 7 30 1016 10 16.09344 0 0
2:52 am 02:52 Mostly Cloudy 72 22.2 67 19.4 84 84 NNW 6 9 30 1016 10 16.09344 0 0
3:52 am 03:52 Mostly Cloudy 72 22.2 68 20 87 87 NNW 6 9 30 1016 10 16.09344 0 0
4:52 am 04:52 Partly Cloudy 73 22.8 66 18.9 79 79 NNE 8 13 30 1016 10 16.09344 0 0
5:52 am 05:52 Mostly Cloudy 72 22.2 65 18.3 79 79 NNE 8 13 30 1016 10 16.09344 0 0
6:52 am 06:52 Mostly Cloudy 72 22.2 65 18.3 79 79 N 8 13 30.03 1017 10 16.09344 0 0
7:52 am 07:52 Mostly Cloudy 74 23.3 66 18.9 76 76 N 6 9 30.06 1018 10 16.09344 0 0
8:52 am 08:52 Partly Cloudy 75 23.9 65 18.3 71 71 N 8 13 30.06 1018 10 16.09344 0 0
9:52 am 09:52 Mostly Sunny 79 26.1 63 17.2 58 58 NNE 7 11 30.06 1018 10 16.09344 0 0
10:52 am 10:52 Mostly Sunny 81 27.2 62 16.7 53 53 ENE 6 9 30.06 1018 10 16.09344 0 0
11:52 am 11:52 Mostly Sunny 82 27.8 61 16.1 49 49 VRB 3 6 30.06 1018 10 16.09344 0 0
12:52 pm 12:52 Mostly Sunny 84 28.9 60 15.6 44 44 Calm 30.03 1017 10 16.09344 0 0
1:52 pm 13:52 Mostly Sunny 86 30 59 15 40 40 ENE 5 7 30.03 1017 10 16.09344 0 0
2:52 pm 14:52 Partly Cloudy 88 31.1 59 15 38 38 E 3 6 30 1016 10 16.09344 0 0
3:52 pm 15:52 Partly Cloudy 88 31.1 58 14.4 36 36 SSE 5 7 30 1016 10 16.09344 0 0
4:52 pm 16:52 Partly Cloudy 88 31.1 59 15 38 38 S 7 11 29.97 1015 10 16.09344 0 0
5:52 pm 17:52 Partly Cloudy 88 31.1 60 15.6 39 39 S 7 11 29.97 1015 10 16.09344 0 0
6:52 pm 18:52 Partly Cloudy 84 28.9 66 18.9 55 55 SSE 12 19 29.97 1015 10 16.09344 0 0
7:52 pm 19:52 Partly Cloudy 81 27.2 66 18.9 61 61 SSE 10 17 29.97 1015 10 16.09344 0 0
8:52 pm 20:52 Partly Cloudy 79 26.1 65 18.3 62 62 S 10 17 29.97 1015 10 16.09344 0 0
9:52 pm 21:52 Partly Cloudy 78 25.6 63 17.2 60 60 SSE 8 13 29.97 1015 10 16.09344 0 0
10:52 pm 22:52 Partly Cloudy 77 25 65 18.3 66 66 S 7 11 30 1016 10 16.09344 0 0
11:52 pm 23:52 Partly Cloudy 77 25 68 20 74 74 S 12 19 30 1016 10 16.09344 0 0

Powered by AerisWeather